sensor_id;sensor_type;location;lat;lon;timestamp;temperature;humidity
64817;DHT22;69037;45.634;11.704;2023-04-05T00:00:46;19.60;44.70
64817;DHT22;69037;45.634;11.704;2023-04-05T00:03:12;19.60;44.70
64817;DHT22;69037;45.634;11.704;2023-04-05T00:05:38;19.60;44.60
64817;DHT22;69037;45.634;11.704;2023-04-05T00:08:05;19.60;44.50
64817;DHT22;69037;45.634;11.704;2023-04-05T00:10:38;19.60;44.50
64817;DHT22;69037;45.634;11.704;2023-04-05T00:13:04;19.50;44.40
64817;DHT22;69037;45.634;11.704;2023-04-05T00:15:30;19.50;44.40
64817;DHT22;69037;45.634;11.704;2023-04-05T00:17:57;19.50;44.30
64817;DHT22;69037;45.634;11.704;2023-04-05T00:20:24;19.50;44.30
64817;DHT22;69037;45.634;11.704;2023-04-05T00:22:50;19.50;44.20
64817;DHT22;69037;45.634;11.704;2023-04-05T00:25:17;19.50;44.20
64817;DHT22;69037;45.634;11.704;2023-04-05T00:27:43;19.50;44.20
64817;DHT22;69037;45.634;11.704;2023-04-05T00:30:09;19.50;44.10
64817;DHT22;69037;45.634;11.704;2023-04-05T00:32:36;19.40;44.00
64817;DHT22;69037;45.634;11.704;2023-04-05T00:35:02;19.50;44.00
64817;DHT22;69037;45.634;11.704;2023-04-05T00:37:28;19.40;43.90
64817;DHT22;69037;45.634;11.704;2023-04-05T00:39:54;19.50;43.90
64817;DHT22;69037;45.634;11.704;2023-04-05T00:42:22;19.40;43.80
64817;DHT22;69037;45.634;11.704;2023-04-05T00:44:48;19.40;43.80
64817;DHT22;69037;45.634;11.704;2023-04-05T00:47:15;19.40;43.70
64817;DHT22;69037;45.634;11.704;2023-04-05T00:49:45;19.40;43.70
64817;DHT22;69037;45.634;11.704;2023-04-05T00:52:11;19.40;43.70
64817;DHT22;69037;45.634;11.704;2023-04-05T00:54:37;19.40;43.60
64817;DHT22;69037;45.634;11.704;2023-04-05T00:57:03;19.40;43.60
64817;DHT22;69037;45.634;11.704;2023-04-05T00:59:31;19.40;43.60
64817;DHT22;69037;45.634;11.704;2023-04-05T01:02:07;19.40;43.50
64817;DHT22;69037;45.634;11.704;2023-04-05T01:04:40;19.40;43.50
64817;DHT22;69037;45.634;11.704;2023-04-05T01:12:22;19.30;43.40
64817;DHT22;69037;45.634;11.704;2023-04-05T01:14:50;19.40;43.40
64817;DHT22;69037;45.634;11.704;2023-04-05T01:17:17;19.30;43.30
64817;DHT22;69037;45.634;11.704;2023-04-05T01:19:58;19.30;43.30
64817;DHT22;69037;45.634;11.704;2023-04-05T01:22:38;19.30;43.30
64817;DHT22;69037;45.634;11.704;2023-04-05T01:25:21;19.30;43.20
64817;DHT22;69037;45.634;11.704;2023-04-05T01:30:41;19.30;43.20
64817;DHT22;69037;45.634;11.704;2023-04-05T01:35:58;19.30;43.10
64817;DHT22;69037;45.634;11.704;2023-04-05T01:38:27;19.30;43.10
64817;DHT22;69037;45.634;11.704;2023-04-05T01:40:53;19.30;43.00
64817;DHT22;69037;45.634;11.704;2023-04-05T01:43:19;19.30;43.00
64817;DHT22;69037;45.634;11.704;2023-04-05T01:45:46;19.30;43.00
64817;DHT22;69037;45.634;11.704;2023-04-05T01:48:13;19.30;42.90
64817;DHT22;69037;45.634;11.704;2023-04-05T01:50:39;19.30;42.90
64817;DHT22;69037;45.634;11.704;2023-04-05T01:53:08;19.30;42.90
64817;DHT22;69037;45.634;11.704;2023-04-05T01:55:34;19.30;42.90
64817;DHT22;69037;45.634;11.704;2023-04-05T01:58:00;19.20;42.80
64817;DHT22;69037;45.634;11.704;2023-04-05T02:00:26;19.30;42.80
64817;DHT22;69037;45.634;11.704;2023-04-05T02:02:52;19.20;42.80
64817;DHT22;69037;45.634;11.704;2023-04-05T02:05:18;19.20;42.70
64817;DHT22;69037;45.634;11.704;2023-04-05T02:07:44;19.20;42.70
64817;DHT22;69037;45.634;11.704;2023-04-05T02:10:13;19.20;42.70
64817;DHT22;69037;45.634;11.704;2023-04-05T02:12:40;19.20;42.70
64817;DHT22;69037;45.634;11.704;2023-04-05T02:15:07;19.20;42.70
64817;DHT22;69037;45.634;11.704;2023-04-05T02:17:35;19.20;42.60
64817;DHT22;69037;45.634;11.704;2023-04-05T02:20:06;19.20;42.60
64817;DHT22;69037;45.634;11.704;2023-04-05T02:22:33;19.20;42.60
64817;DHT22;69037;45.634;11.704;2023-04-05T02:24:59;19.20;42.60
64817;DHT22;69037;45.634;11.704;2023-04-05T02:27:25;19.20;42.60
64817;DHT22;69037;45.634;11.704;2023-04-05T02:29:51;19.20;42.60
64817;DHT22;69037;45.634;11.704;2023-04-05T02:32:20;19.20;42.50
64817;DHT22;69037;45.634;11.704;2023-04-05T02:34:46;19.20;42.50
64817;DHT22;69037;45.634;11.704;2023-04-05T02:37:12;19.20;42.50
64817;DHT22;69037;45.634;11.704;2023-04-05T02:39:39;19.20;42.50
64817;DHT22;69037;45.634;11.704;2023-04-05T02:42:04;19.20;42.50
64817;DHT22;69037;45.634;11.704;2023-04-05T02:44:31;19.20;42.50
64817;DHT22;69037;45.634;11.704;2023-04-05T02:46:57;19.20;42.50
64817;DHT22;69037;45.634;11.704;2023-04-05T02:49:23;19.20;42.40
64817;DHT22;69037;45.634;11.704;2023-04-05T02:51:50;19.20;42.40
64817;DHT22;69037;45.634;11.704;2023-04-05T02:54:16;19.20;42.40
64817;DHT22;69037;45.634;11.704;2023-04-05T02:56:42;19.20;42.40
64817;DHT22;69037;45.634;11.704;2023-04-05T02:59:08;19.20;42.30
64817;DHT22;69037;45.634;11.704;2023-04-05T03:01:34;19.20;42.30
64817;DHT22;69037;45.634;11.704;2023-04-05T03:04:01;19.20;42.30
64817;DHT22;69037;45.634;11.704;2023-04-05T03:06:27;19.20;42.30
64817;DHT22;69037;45.634;11.704;2023-04-05T03:08:53;19.20;42.20
64817;DHT22;69037;45.634;11.704;2023-04-05T03:11:20;19.20;42.20
64817;DHT22;69037;45.634;11.704;2023-04-05T03:13:46;19.20;42.20
64817;DHT22;69037;45.634;11.704;2023-04-05T03:16:12;19.20;42.20
64817;DHT22;69037;45.634;11.704;2023-04-05T03:18:38;19.20;42.10
64817;DHT22;69037;45.634;11.704;2023-04-05T03:21:04;19.20;42.20
64817;DHT22;69037;45.634;11.704;2023-04-05T03:23:30;19.10;42.10
64817;DHT22;69037;45.634;11.704;2023-04-05T03:26:00;19.20;42.10
64817;DHT22;69037;45.634;11.704;2023-04-05T03:28:30;19.20;42.10
64817;DHT22;69037;45.634;11.704;2023-04-05T03:30:59;19.20;42.00
64817;DHT22;69037;45.634;11.704;2023-04-05T03:33:25;19.20;42.00
64817;DHT22;69037;45.634;11.704;2023-04-05T03:35:51;19.10;42.00
64817;DHT22;69037;45.634;11.704;2023-04-05T03:38:19;19.10;41.90
64817;DHT22;69037;45.634;11.704;2023-04-05T03:40:46;19.10;41.90
64817;DHT22;69037;45.634;11.704;2023-04-05T03:43:11;19.10;41.90
64817;DHT22;69037;45.634;11.704;2023-04-05T03:45:37;19.10;41.90
64817;DHT22;69037;45.634;11.704;2023-04-05T03:48:05;19.10;41.90
64817;DHT22;69037;45.634;11.704;2023-04-05T03:50:31;19.10;41.80
64817;DHT22;69037;45.634;11.704;2023-04-05T03:52:57;19.00;41.90
64817;DHT22;69037;45.634;11.704;2023-04-05T03:55:24;19.10;41.80
64817;DHT22;69037;45.634;11.704;2023-04-05T03:57:51;19.10;41.80
64817;DHT22;69037;45.634;11.704;2023-04-05T04:00:18;19.10;41.80
64817;DHT22;69037;45.634;11.704;2023-04-05T04:02:46;19.10;41.70
64817;DHT22;69037;45.634;11.704;2023-04-05T04:05:13;19.00;41.70
64817;DHT22;69037;45.634;11.704;2023-04-05T04:07:39;19.00;41.70
64817;DHT22;69037;45.634;11.704;2023-04-05T04:10:07;19.00;41.70
64817;DHT22;69037;45.634;11.704;2023-04-05T04:12:33;19.10;41.70
64817;DHT22;69037;45.634;11.704;2023-04-05T04:14:59;19.00;41.60
64817;DHT22;69037;45.634;11.704;2023-04-05T04:17:33;19.00;41.60
64817;DHT22;69037;45.634;11.704;2023-04-05T04:19:59;19.00;41.60
64817;DHT22;69037;45.634;11.704;2023-04-05T04:22:26;19.00;41.60
64817;DHT22;69037;45.634;11.704;2023-04-05T04:24:58;19.00;41.50
64817;DHT22;69037;45.634;11.704;2023-04-05T04:27:27;19.00;41.50
64817;DHT22;69037;45.634;11.704;2023-04-05T04:29:54;19.00;41.50
64817;DHT22;69037;45.634;11.704;2023-04-05T04:32:21;19.00;41.50
64817;DHT22;69037;45.634;11.704;2023-04-05T04:34:51;19.00;41.50
64817;DHT22;69037;45.634;11.704;2023-04-05T04:37:20;18.90;41.40
64817;DHT22;69037;45.634;11.704;2023-04-05T04:39:47;18.90;41.40
64817;DHT22;69037;45.634;11.704;2023-04-05T04:42:14;18.90;41.40
64817;DHT22;69037;45.634;11.704;2023-04-05T04:44:44;18.90;41.40
64817;DHT22;69037;45.634;11.704;2023-04-05T04:47:11;18.90;41.40
64817;DHT22;69037;45.634;11.704;2023-04-05T04:49:38;18.90;41.30
64817;DHT22;69037;45.634;11.704;2023-04-05T04:52:06;18.90;41.40
64817;DHT22;69037;45.634;11.704;2023-04-05T04:54:34;18.90;41.30
64817;DHT22;69037;45.634;11.704;2023-04-05T04:57:01;18.90;41.40
64817;DHT22;69037;45.634;11.704;2023-04-05T04:59:28;18.90;41.30
64817;DHT22;69037;45.634;11.704;2023-04-05T05:01:54;18.90;41.40
64817;DHT22;69037;45.634;11.704;2023-04-05T05:04:20;18.90;41.40
64817;DHT22;69037;45.634;11.704;2023-04-05T05:06:49;18.90;41.40
64817;DHT22;69037;45.634;11.704;2023-04-05T05:09:16;18.90;41.50
64817;DHT22;69037;45.634;11.704;2023-04-05T05:11:42;18.90;41.50
64817;DHT22;69037;45.634;11.704;2023-04-05T05:14:08;18.90;41.50
64817;DHT22;69037;45.634;11.704;2023-04-05T05:16:34;18.90;41.50
64817;DHT22;69037;45.634;11.704;2023-04-05T05:19:01;18.90;41.60
64817;DHT22;69037;45.634;11.704;2023-04-05T05:21:27;18.90;41.50
64817;DHT22;69037;45.634;11.704;2023-04-05T05:23:53;18.90;41.50
64817;DHT22;69037;45.634;11.704;2023-04-05T05:26:19;18.90;41.50
64817;DHT22;69037;45.634;11.704;2023-04-05T05:28:45;18.90;41.50
64817;DHT22;69037;45.634;11.704;2023-04-05T05:31:13;18.90;41.40
64817;DHT22;69037;45.634;11.704;2023-04-05T05:33:39;18.90;41.40
64817;DHT22;69037;45.634;11.704;2023-04-05T05:36:05;18.90;41.30
64817;DHT22;69037;45.634;11.704;2023-04-05T05:38:31;18.80;41.30
64817;DHT22;69037;45.634;11.704;2023-04-05T05:40:58;18.80;41.40
64817;DHT22;69037;45.634;11.704;2023-04-05T05:43:24;18.80;41.40
64817;DHT22;69037;45.634;11.704;2023-04-05T05:45:50;18.80;41.30
64817;DHT22;69037;45.634;11.704;2023-04-05T05:48:16;18.80;41.40
64817;DHT22;69037;45.634;11.704;2023-04-05T05:50:43;18.70;41.50
64817;DHT22;69037;45.634;11.704;2023-04-05T05:53:09;18.70;41.50
64817;DHT22;69037;45.634;11.704;2023-04-05T05:55:36;18.80;41.60
64817;DHT22;69037;45.634;11.704;2023-04-05T05:58:03;18.80;41.60
64817;DHT22;69037;45.634;11.704;2023-04-05T06:00:29;18.80;41.60
64817;DHT22;69037;45.634;11.704;2023-04-05T06:02:55;18.80;41.60
64817;DHT22;69037;45.634;11.704;2023-04-05T06:05:23;18.80;41.60
64817;DHT22;69037;45.634;11.704;2023-04-05T06:07:49;18.90;41.60
64817;DHT22;69037;45.634;11.704;2023-04-05T06:10:15;18.80;41.60
64817;DHT22;69037;45.634;11.704;2023-04-05T06:12:42;18.90;41.50
64817;DHT22;69037;45.634;11.704;2023-04-05T06:15:08;18.90;40.70
64817;DHT22;69037;45.634;11.704;2023-04-05T06:17:34;18.80;41.00
64817;DHT22;69037;45.634;11.704;2023-04-05T06:20:08;18.80;41.20
64817;DHT22;69037;45.634;11.704;2023-04-05T06:22:36;18.70;41.30
64817;DHT22;69037;45.634;11.704;2023-04-05T06:25:02;18.70;41.40
64817;DHT22;69037;45.634;11.704;2023-04-05T06:27:28;18.80;41.40
64817;DHT22;69037;45.634;11.704;2023-04-05T06:29:54;18.70;41.30
64817;DHT22;69037;45.634;11.704;2023-04-05T06:32:24;18.80;41.30
64817;DHT22;69037;45.634;11.704;2023-04-05T06:34:50;18.80;41.40
64817;DHT22;69037;45.634;11.704;2023-04-05T06:37:16;18.70;40.90
64817;DHT22;69037;45.634;11.704;2023-04-05T06:39:43;18.70;41.10
64817;DHT22;69037;45.634;11.704;2023-04-05T06:42:09;18.70;41.20
64817;DHT22;69037;45.634;11.704;2023-04-05T06:44:35;18.70;41.10
64817;DHT22;69037;45.634;11.704;2023-04-05T06:47:01;18.70;41.10
64817;DHT22;69037;45.634;11.704;2023-04-05T06:49:29;18.70;41.10
64817;DHT22;69037;45.634;11.704;2023-04-05T06:51:56;18.70;41.10
64817;DHT22;69037;45.634;11.704;2023-04-05T06:54:22;18.70;41.20
64817;DHT22;69037;45.634;11.704;2023-04-05T06:56:50;18.80;41.10
64817;DHT22;69037;45.634;11.704;2023-04-05T06:59:16;18.80;41.20
64817;DHT22;69037;45.634;11.704;2023-04-05T07:01:42;18.80;41.20
64817;DHT22;69037;45.634;11.704;2023-04-05T07:04:09;18.80;41.20
64817;DHT22;69037;45.634;11.704;2023-04-05T07:06:35;18.80;41.20
64817;DHT22;69037;45.634;11.704;2023-04-05T07:09:03;18.90;41.20
64817;DHT22;69037;45.634;11.704;2023-04-05T07:11:31;18.80;41.20
64817;DHT22;69037;45.634;11.704;2023-04-05T07:13:58;18.80;40.60
64817;DHT22;69037;45.634;11.704;2023-04-05T07:16:24;18.80;40.70
64817;DHT22;69037;45.634;11.704;2023-04-05T07:18:50;18.80;40.90
64817;DHT22;69037;45.634;11.704;2023-04-05T07:21:16;18.80;40.90
64817;DHT22;69037;45.634;11.704;2023-04-05T07:23:43;18.80;40.90
64817;DHT22;69037;45.634;11.704;2023-04-05T07:26:10;18.70;40.90
64817;DHT22;69037;45.634;11.704;2023-04-05T07:28:36;18.80;40.90
64817;DHT22;69037;45.634;11.704;2023-04-05T07:31:04;18.80;40.80
64817;DHT22;69037;45.634;11.704;2023-04-05T07:33:30;18.80;40.70
64817;DHT22;69037;45.634;11.704;2023-04-05T07:35:56;18.80;40.50
64817;DHT22;69037;45.634;11.704;2023-04-05T07:38:22;18.80;40.40
64817;DHT22;69037;45.634;11.704;2023-04-05T07:40:48;18.80;40.30
64817;DHT22;69037;45.634;11.704;2023-04-05T07:43:17;18.80;40.30
64817;DHT22;69037;45.634;11.704;2023-04-05T07:45:43;18.80;40.30
64817;DHT22;69037;45.634;11.704;2023-04-05T07:48:09;18.70;40.30
64817;DHT22;69037;45.634;11.704;2023-04-05T07:50:35;18.80;40.30
64817;DHT22;69037;45.634;11.704;2023-04-05T07:53:04;18.70;40.30
64817;DHT22;69037;45.634;11.704;2023-04-05T07:55:29;18.80;40.20
64817;DHT22;69037;45.634;11.704;2023-04-05T07:57:55;18.70;40.20
64817;DHT22;69037;45.634;11.704;2023-04-05T08:00:25;18.70;39.90
64817;DHT22;69037;45.634;11.704;2023-04-05T08:02:52;18.70;40.10
64817;DHT22;69037;45.634;11.704;2023-04-05T08:05:17;18.70;40.00
64817;DHT22;69037;45.634;11.704;2023-04-05T08:07:43;18.70;40.00
64817;DHT22;69037;45.634;11.704;2023-04-05T08:10:09;18.70;40.10
64817;DHT22;69037;45.634;11.704;2023-04-05T08:12:36;18.70;40.00
64817;DHT22;69037;45.634;11.704;2023-04-05T08:15:02;18.70;40.00
64817;DHT22;69037;45.634;11.704;2023-04-05T08:17:29;18.70;40.00
64817;DHT22;69037;45.634;11.704;2023-04-05T08:19:54;18.70;40.00
64817;DHT22;69037;45.634;11.704;2023-04-05T08:22:27;18.70;40.10
64817;DHT22;69037;45.634;11.704;2023-04-05T08:24:52;18.70;40.20
64817;DHT22;69037;45.634;11.704;2023-04-05T08:27:19;18.80;40.00
64817;DHT22;69037;45.634;11.704;2023-04-05T08:29:47;18.80;40.00
64817;DHT22;69037;45.634;11.704;2023-04-05T08:32:14;18.80;40.30
64817;DHT22;69037;45.634;11.704;2023-04-05T08:34:40;18.90;40.30
64817;DHT22;69037;45.634;11.704;2023-04-05T08:37:07;18.90;40.40
64817;DHT22;69037;45.634;11.704;2023-04-05T08:39:39;18.90;40.40
64817;DHT22;69037;45.634;11.704;2023-04-05T08:42:22;18.90;40.40
64817;DHT22;69037;45.634;11.704;2023-04-05T08:44:51;18.90;40.30
64817;DHT22;69037;45.634;11.704;2023-04-05T08:47:22;19.00;40.30
64817;DHT22;69037;45.634;11.704;2023-04-05T08:49:48;19.00;40.50
64817;DHT22;69037;45.634;11.704;2023-04-05T08:52:14;19.00;40.50
64817;DHT22;69037;45.634;11.704;2023-04-05T08:54:41;19.10;40.50
64817;DHT22;69037;45.634;11.704;2023-04-05T08:57:07;19.10;40.50
64817;DHT22;69037;45.634;11.704;2023-04-05T08:59:37;19.20;40.40
64817;DHT22;69037;45.634;11.704;2023-04-05T09:02:13;19.20;40.50
64817;DHT22;69037;45.634;11.704;2023-04-05T09:04:43;19.20;40.50
64817;DHT22;69037;45.634;11.704;2023-04-05T09:07:12;19.20;40.50
64817;DHT22;69037;45.634;11.704;2023-04-05T09:09:38;19.30;40.40
64817;DHT22;69037;45.634;11.704;2023-04-05T09:12:07;19.30;40.20
64817;DHT22;69037;45.634;11.704;2023-04-05T09:14:33;19.20;40.20
64817;DHT22;69037;45.634;11.704;2023-04-05T09:17:01;19.20;40.30
64817;DHT22;69037;45.634;11.704;2023-04-05T09:19:28;19.20;40.20
64817;DHT22;69037;45.634;11.704;2023-04-05T09:22:04;19.20;40.30
64817;DHT22;69037;45.634;11.704;2023-04-05T09:24:40;19.20;40.40
64817;DHT22;69037;45.634;11.704;2023-04-05T09:29:39;19.20;40.30
64817;DHT22;69037;45.634;11.704;2023-04-05T09:32:07;19.20;40.40
64817;DHT22;69037;45.634;11.704;2023-04-05T09:34:36;19.30;40.40
64817;DHT22;69037;45.634;11.704;2023-04-05T09:37:11;19.30;40.30
64817;DHT22;69037;45.634;11.704;2023-04-05T09:39:41;19.30;40.20
64817;DHT22;69037;45.634;11.704;2023-04-05T09:42:18;19.20;40.40
64817;DHT22;69037;45.634;11.704;2023-04-05T09:44:51;19.20;40.40
64817;DHT22;69037;45.634;11.704;2023-04-05T09:47:21;19.30;40.40
64817;DHT22;69037;45.634;11.704;2023-04-05T09:49:47;19.20;40.40
64817;DHT22;69037;45.634;11.704;2023-04-05T09:52:40;19.20;40.40
64817;DHT22;69037;45.634;11.704;2023-04-05T09:55:07;19.30;40.40
64817;DHT22;69037;45.634;11.704;2023-04-05T09:57:37;19.30;40.50
64817;DHT22;69037;45.634;11.704;2023-04-05T10:00:17;19.30;40.60
64817;DHT22;69037;45.634;11.704;2023-04-05T10:02:43;19.30;40.60
64817;DHT22;69037;45.634;11.704;2023-04-05T10:05:12;19.30;40.70
64817;DHT22;69037;45.634;11.704;2023-04-05T10:07:40;19.40;40.70
64817;DHT22;69037;45.634;11.704;2023-04-05T10:10:07;19.40;40.60
64817;DHT22;69037;45.634;11.704;2023-04-05T10:12:37;19.40;40.40
64817;DHT22;69037;45.634;11.704;2023-04-05T10:15:04;19.40;40.50
64817;DHT22;69037;45.634;11.704;2023-04-05T10:17:36;19.40;40.50
64817;DHT22;69037;45.634;11.704;2023-04-05T10:20:13;19.40;40.50
64817;DHT22;69037;45.634;11.704;2023-04-05T10:28:11;19.30;40.00
64817;DHT22;69037;45.634;11.704;2023-04-05T10:30:50;19.30;39.90
64817;DHT22;69037;45.634;11.704;2023-04-05T10:33:23;19.20;40.00
64817;DHT22;69037;45.634;11.704;2023-04-05T10:38:29;19.20;40.30
64817;DHT22;69037;45.634;11.704;2023-04-05T10:41:11;19.20;40.40
64817;DHT22;69037;45.634;11.704;2023-04-05T10:43:39;19.20;40.20
64817;DHT22;69037;45.634;11.704;2023-04-05T10:46:06;19.20;40.40
64817;DHT22;69037;45.634;11.704;2023-04-05T10:51:36;19.20;40.50
64817;DHT22;69037;45.634;11.704;2023-04-05T10:54:05;19.30;40.60
64817;DHT22;69037;45.634;11.704;2023-04-05T10:56:32;19.20;40.60
64817;DHT22;69037;45.634;11.704;2023-04-05T10:58:58;19.30;40.70
64817;DHT22;69037;45.634;11.704;2023-04-05T11:01:26;19.30;40.70
64817;DHT22;69037;45.634;11.704;2023-04-05T11:03:52;19.30;40.60
64817;DHT22;69037;45.634;11.704;2023-04-05T11:09:27;19.40;40.50
64817;DHT22;69037;45.634;11.704;2023-04-05T11:11:49;19.40;40.60
64817;DHT22;69037;45.634;11.704;2023-04-05T11:14:20;19.40;40.60
64817;DHT22;69037;45.634;11.704;2023-04-05T11:16:49;19.40;40.50
64817;DHT22;69037;45.634;11.704;2023-04-05T11:19:19;19.40;40.60
64817;DHT22;69037;45.634;11.704;2023-04-05T11:21:45;19.40;40.60
64817;DHT22;69037;45.634;11.704;2023-04-05T11:24:12;19.40;40.60
64817;DHT22;69037;45.634;11.704;2023-04-05T11:29:14;19.40;40.50
64817;DHT22;69037;45.634;11.704;2023-04-05T11:34:23;19.40;40.60
64817;DHT22;69037;45.634;11.704;2023-04-05T11:36:49;19.40;40.40
64817;DHT22;69037;45.634;11.704;2023-04-05T11:41:55;19.40;40.60
64817;DHT22;69037;45.634;11.704;2023-04-05T11:44:21;19.40;40.70
64817;DHT22;69037;45.634;11.704;2023-04-05T11:47:07;19.40;40.70
64817;DHT22;69037;45.634;11.704;2023-04-05T11:49:33;19.40;40.60
64817;DHT22;69037;45.634;11.704;2023-04-05T11:52:09;19.40;40.60
64817;DHT22;69037;45.634;11.704;2023-04-05T11:54:36;19.50;40.70
64817;DHT22;69037;45.634;11.704;2023-04-05T11:57:02;19.50;40.60
64817;DHT22;69037;45.634;11.704;2023-04-05T11:59:33;19.50;40.70
64817;DHT22;69037;45.634;11.704;2023-04-05T12:02:03;19.40;40.50
64817;DHT22;69037;45.634;11.704;2023-04-05T12:04:30;19.50;40.30
64817;DHT22;69037;45.634;11.704;2023-04-05T12:07:16;19.40;40.40
64817;DHT22;69037;45.634;11.704;2023-04-05T12:10:02;19.40;40.20
64817;DHT22;69037;45.634;11.704;2023-04-05T12:12:42;19.40;40.40
64817;DHT22;69037;45.634;11.704;2023-04-05T12:15:12;19.40;40.30
64817;DHT22;69037;45.634;11.704;2023-04-05T12:17:43;19.40;40.20
64817;DHT22;69037;45.634;11.704;2023-04-05T12:20:10;19.40;40.40
64817;DHT22;69037;45.634;11.704;2023-04-05T12:22:37;19.40;40.40
64817;DHT22;69037;45.634;11.704;2023-04-05T12:25:03;19.40;40.50
64817;DHT22;69037;45.634;11.704;2023-04-05T12:27:29;19.40;40.60
64817;DHT22;69037;45.634;11.704;2023-04-05T12:30:09;19.40;40.70
64817;DHT22;69037;45.634;11.704;2023-04-05T12:32:53;19.40;40.70
64817;DHT22;69037;45.634;11.704;2023-04-05T12:37:51;19.40;40.70
64817;DHT22;69037;45.634;11.704;2023-04-05T12:40:21;19.40;40.70
64817;DHT22;69037;45.634;11.704;2023-04-05T12:42:47;19.40;40.70
64817;DHT22;69037;45.634;11.704;2023-04-05T12:45:13;19.50;40.70
64817;DHT22;69037;45.634;11.704;2023-04-05T12:50:14;19.50;40.80
64817;DHT22;69037;45.634;11.704;2023-04-05T12:52:56;19.50;40.70
64817;DHT22;69037;45.634;11.704;2023-04-05T12:55:23;19.50;40.90
64817;DHT22;69037;45.634;11.704;2023-04-05T12:57:57;19.50;40.80
64817;DHT22;69037;45.634;11.704;2023-04-05T13:00:29;19.50;40.90
64817;DHT22;69037;45.634;11.704;2023-04-05T13:02:57;19.50;40.80
64817;DHT22;69037;45.634;11.704;2023-04-05T13:05:27;19.50;40.70
64817;DHT22;69037;45.634;11.704;2023-04-05T13:07:53;19.50;40.70
64817;DHT22;69037;45.634;11.704;2023-04-05T13:10:21;19.50;40.80
64817;DHT22;69037;45.634;11.704;2023-04-05T13:12:48;19.50;40.80
64817;DHT22;69037;45.634;11.704;2023-04-05T13:15:15;19.50;40.80
64817;DHT22;69037;45.634;11.704;2023-04-05T13:17:43;19.50;40.70
64817;DHT22;69037;45.634;11.704;2023-04-05T13:20:13;19.50;40.60
64817;DHT22;69037;45.634;11.704;2023-04-05T13:22:39;19.50;40.50
64817;DHT22;69037;45.634;11.704;2023-04-05T13:25:05;19.50;40.50
64817;DHT22;69037;45.634;11.704;2023-04-05T13:27:31;19.50;40.40
64817;DHT22;69037;45.634;11.704;2023-04-05T13:30:00;19.40;40.40
64817;DHT22;69037;45.634;11.704;2023-04-05T13:32:26;19.40;40.30
64817;DHT22;69037;45.634;11.704;2023-04-05T13:34:52;19.40;40.40
64817;DHT22;69037;45.634;11.704;2023-04-05T13:37:18;19.40;40.40
64817;DHT22;69037;45.634;11.704;2023-04-05T13:39:43;19.40;40.40
64817;DHT22;69037;45.634;11.704;2023-04-05T13:42:10;19.40;40.00
64817;DHT22;69037;45.634;11.704;2023-04-05T13:44:36;19.40;39.80
64817;DHT22;69037;45.634;11.704;2023-04-05T13:47:02;19.40;39.90
64817;DHT22;69037;45.634;11.704;2023-04-05T13:49:29;19.40;39.80
64817;DHT22;69037;45.634;11.704;2023-04-05T13:51:55;19.30;39.80
64817;DHT22;69037;45.634;11.704;2023-04-05T13:54:21;19.30;39.90
64817;DHT22;69037;45.634;11.704;2023-04-05T13:56:47;19.30;39.90
64817;DHT22;69037;45.634;11.704;2023-04-05T13:59:14;19.30;39.80
64817;DHT22;69037;45.634;11.704;2023-04-05T14:01:47;19.30;39.80
64817;DHT22;69037;45.634;11.704;2023-04-05T14:04:13;19.30;39.70
64817;DHT22;69037;45.634;11.704;2023-04-05T14:06:41;19.30;39.60
64817;DHT22;69037;45.634;11.704;2023-04-05T14:09:10;19.30;39.70
64817;DHT22;69037;45.634;11.704;2023-04-05T14:11:36;19.30;39.90
64817;DHT22;69037;45.634;11.704;2023-04-05T14:14:02;19.30;40.00
64817;DHT22;69037;45.634;11.704;2023-04-05T14:16:29;19.30;40.00
64817;DHT22;69037;45.634;11.704;2023-04-05T14:18:55;19.30;39.80
64817;DHT22;69037;45.634;11.704;2023-04-05T14:21:23;19.30;39.70
64817;DHT22;69037;45.634;11.704;2023-04-05T14:23:49;19.30;39.40
64817;DHT22;69037;45.634;11.704;2023-04-05T14:26:17;19.30;39.10
64817;DHT22;69037;45.634;11.704;2023-04-05T14:28:44;19.20;39.30
64817;DHT22;69037;45.634;11.704;2023-04-05T14:31:09;19.20;39.40
64817;DHT22;69037;45.634;11.704;2023-04-05T14:33:36;19.30;39.50
64817;DHT22;69037;45.634;11.704;2023-04-05T14:36:01;19.30;39.60
64817;DHT22;69037;45.634;11.704;2023-04-05T14:38:28;19.20;39.70
64817;DHT22;69037;45.634;11.704;2023-04-05T14:40:54;19.20;39.80
64817;DHT22;69037;45.634;11.704;2023-04-05T14:43:21;19.30;39.80
64817;DHT22;69037;45.634;11.704;2023-04-05T14:45:47;19.30;39.90
64817;DHT22;69037;45.634;11.704;2023-04-05T14:48:14;19.30;39.90
64817;DHT22;69037;45.634;11.704;2023-04-05T14:50:40;19.30;40.00
64817;DHT22;69037;45.634;11.704;2023-04-05T14:53:06;19.30;40.00
64817;DHT22;69037;45.634;11.704;2023-04-05T14:55:32;19.30;39.90
64817;DHT22;69037;45.634;11.704;2023-04-05T14:57:59;19.40;40.00
64817;DHT22;69037;45.634;11.704;2023-04-05T15:00:25;19.30;40.00
64817;DHT22;69037;45.634;11.704;2023-04-05T15:02:51;19.30;40.00
64817;DHT22;69037;45.634;11.704;2023-04-05T15:05:18;19.30;40.00
64817;DHT22;69037;45.634;11.704;2023-04-05T15:07:43;19.30;40.10
64817;DHT22;69037;45.634;11.704;2023-04-05T15:10:09;19.30;40.10
64817;DHT22;69037;45.634;11.704;2023-04-05T15:12:35;19.30;40.20
64817;DHT22;69037;45.634;11.704;2023-04-05T15:15:02;19.30;40.10
64817;DHT22;69037;45.634;11.704;2023-04-05T15:17:27;19.30;40.20
64817;DHT22;69037;45.634;11.704;2023-04-05T15:19:54;19.30;40.20
64817;DHT22;69037;45.634;11.704;2023-04-05T15:22:20;19.30;40.10
64817;DHT22;69037;45.634;11.704;2023-04-05T15:24:47;19.30;40.10
64817;DHT22;69037;45.634;11.704;2023-04-05T15:27:14;19.30;40.20
64817;DHT22;69037;45.634;11.704;2023-04-05T15:29:39;19.30;40.20
64817;DHT22;69037;45.634;11.704;2023-04-05T15:32:06;19.30;40.00
64817;DHT22;69037;45.634;11.704;2023-04-05T15:34:32;19.30;40.10
64817;DHT22;69037;45.634;11.704;2023-04-05T15:36:59;19.30;40.10
64817;DHT22;69037;45.634;11.704;2023-04-05T15:39:27;19.20;39.90
64817;DHT22;69037;45.634;11.704;2023-04-05T15:41:55;19.30;40.00
64817;DHT22;69037;45.634;11.704;2023-04-05T15:44:22;19.30;40.00
64817;DHT22;69037;45.634;11.704;2023-04-05T15:46:48;19.30;39.90
64817;DHT22;69037;45.634;11.704;2023-04-05T15:49:14;19.20;40.00
64817;DHT22;69037;45.634;11.704;2023-04-05T15:51:40;19.30;40.00
64817;DHT22;69037;45.634;11.704;2023-04-05T15:54:06;19.30;40.00
64817;DHT22;69037;45.634;11.704;2023-04-05T15:56:33;19.30;39.70
64817;DHT22;69037;45.634;11.704;2023-04-05T15:59:01;19.20;39.60